createdAt,value
2022-09-10T00:01:19.561Z,12.17
2022-09-10T00:03:48.846Z,8.27
2022-09-10T00:06:18.546Z,9.07
2022-09-10T00:08:49.559Z,10.93
2022-09-10T00:11:17.772Z,9.93
2022-09-10T00:13:45.895Z,10.43
2022-09-10T00:16:14.994Z,8.90
2022-09-10T00:18:43.426Z,10.87
2022-09-10T00:21:13.230Z,8.53
2022-09-10T00:23:41.435Z,11.97
2022-09-10T00:26:15.239Z,11.27
2022-09-10T00:28:43.840Z,8.53
2022-09-10T00:31:13.293Z,9.97
2022-09-10T00:33:41.872Z,7.77
2022-09-10T00:36:16.851Z,10.43
2022-09-10T00:38:45.046Z,8.10
2022-09-10T00:41:14.740Z,8.23
2022-09-10T00:43:50.976Z,9.83
2022-09-10T00:46:24.024Z,9.67
2022-09-10T00:48:52.591Z,7.83
2022-09-10T00:51:21.028Z,9.30
2022-09-10T00:53:49.571Z,8.73
2022-09-10T00:56:19.059Z,8.47
2022-09-10T00:58:47.943Z,7.57
2022-09-10T01:01:16.135Z,9.53
2022-09-10T01:03:44.567Z,7.17
2022-09-10T01:06:12.637Z,8.17
2022-09-10T01:08:40.991Z,6.30
2022-09-10T01:11:16.698Z,7.87
2022-09-10T01:13:56.582Z,6.43
2022-09-10T01:16:28.982Z,8.33
2022-09-10T01:19:00.828Z,11.13
2022-09-10T01:21:31.927Z,7.77
2022-09-10T01:24:25.414Z,6.30
2022-09-10T01:27:15.219Z,7.20
2022-09-10T01:29:46.347Z,6.10
2022-09-10T01:32:15.991Z,8.57
2022-09-10T01:34:46.578Z,6.33
2022-09-10T01:37:17.410Z,6.30
2022-09-10T01:39:45.698Z,5.67
2022-09-10T01:42:14.692Z,6.53
2022-09-10T01:44:45.835Z,5.37
2022-09-10T01:47:18.079Z,5.43
2022-09-10T01:49:54.577Z,6.63
2022-09-10T01:52:28.734Z,8.70
2022-09-10T01:55:08.312Z,7.93
2022-09-10T01:57:41.490Z,6.33
2022-09-10T02:00:12.305Z,5.40
2022-09-10T02:02:43.208Z,6.30
2022-09-10T02:05:11.394Z,4.70
2022-09-10T02:07:39.598Z,8.83
2022-09-10T02:10:09.432Z,5.07
2022-09-10T02:12:40.092Z,4.57
2022-09-10T02:15:11.651Z,3.93
2022-09-10T02:17:39.878Z,5.57
2022-09-10T02:20:09.656Z,6.17
2022-09-10T02:22:37.773Z,6.80
2022-09-10T02:25:06.880Z,7.70
2022-09-10T02:27:34.999Z,7.43
2022-09-10T02:30:03.283Z,7.80
2022-09-10T02:32:33.130Z,6.60
2022-09-10T02:35:01.513Z,6.63
2022-09-10T02:37:29.929Z,8.20
2022-09-10T02:39:58.297Z,5.90
2022-09-10T02:42:27.261Z,4.73
2022-09-10T02:44:56.849Z,3.57
2022-09-10T02:47:25.105Z,4.13
2022-09-10T02:49:54.601Z,2.77
2022-09-10T02:52:23.154Z,4.57
2022-09-10T02:54:51.706Z,3.50
2022-09-10T02:57:19.918Z,3.37
2022-09-10T02:59:48.258Z,3.50
2022-09-10T03:02:16.531Z,4.33
2022-09-10T03:04:44.851Z,5.57
2022-09-10T03:07:17.192Z,5.07
2022-09-10T03:09:45.525Z,9.03
2022-09-10T03:12:15.892Z,11.07
2022-09-10T03:14:44.097Z,11.40
2022-09-10T03:17:12.233Z,10.40
2022-09-10T03:19:41.281Z,9.80
2022-09-10T03:22:11.653Z,8.70
2022-09-10T03:24:42.103Z,8.10
2022-09-10T03:27:10.272Z,6.67
2022-09-10T03:29:38.628Z,7.30
2022-09-10T03:32:07.067Z,8.33
2022-09-10T03:34:35.323Z,8.70
2022-09-10T03:37:03.813Z,8.33
2022-09-10T03:39:32.063Z,6.93
2022-09-10T03:42:04.335Z,5.80
2022-09-10T03:44:33.936Z,4.50
2022-09-10T03:47:02.040Z,3.80
2022-09-10T03:49:30.340Z,5.53
2022-09-10T03:51:58.484Z,3.30
2022-09-10T03:54:26.874Z,3.70
2022-09-10T03:56:54.994Z,4.10
2022-09-10T03:59:24.724Z,6.00
2022-09-10T04:01:53.052Z,4.37
2022-09-10T04:04:21.176Z,4.97
2022-09-10T04:06:49.272Z,3.67
2022-09-10T04:09:17.450Z,3.33
2022-09-10T04:11:45.591Z,6.83
2022-09-10T04:14:13.779Z,4.03
2022-09-10T04:16:43.384Z,7.37
2022-09-10T04:19:11.770Z,3.90
2022-09-10T04:21:39.844Z,4.73
2022-09-10T04:24:10.040Z,5.00
2022-09-10T04:26:38.231Z,6.03
2022-09-10T04:29:06.400Z,5.97
2022-09-10T04:31:34.576Z,7.47
2022-09-10T04:34:04.191Z,8.57
2022-09-10T04:36:32.295Z,6.97
2022-09-10T04:39:00.770Z,6.17
2022-09-10T04:41:29.092Z,6.97
2022-09-10T04:43:57.262Z,7.70
2022-09-10T04:46:25.435Z,11.87
2022-09-10T04:48:54.299Z,7.67
2022-09-10T04:51:24.004Z,10.53
2022-09-10T04:53:52.160Z,8.77
2022-09-10T04:56:20.666Z,9.53
2022-09-10T04:58:48.942Z,9.00
2022-09-10T05:01:17.182Z,11.23
2022-09-10T05:03:45.534Z,8.57
2022-09-10T05:06:13.662Z,9.10
2022-09-10T05:08:43.701Z,8.70
2022-09-10T05:11:11.759Z,8.40
2022-09-10T05:13:40.163Z,7.10
2022-09-10T05:16:09.091Z,7.53
2022-09-10T05:18:37.447Z,8.10
2022-09-10T05:21:06.165Z,6.80
2022-09-10T05:23:34.444Z,5.60
2022-09-10T05:26:04.293Z,6.17
2022-09-10T05:28:32.577Z,4.33
2022-09-10T05:31:00.892Z,4.80
2022-09-10T05:33:28.941Z,5.60
2022-09-10T05:35:57.079Z,5.63
2022-09-10T05:38:25.197Z,10.40
2022-09-10T05:40:54.049Z,6.60
2022-09-10T05:43:23.569Z,6.20
2022-09-10T05:45:52.530Z,5.93
2022-09-10T05:48:20.721Z,6.13
2022-09-10T05:50:48.817Z,7.07
2022-09-10T05:53:17.085Z,7.30
2022-09-10T05:55:46.104Z,7.40
2022-09-10T05:58:14.787Z,6.93
2022-09-10T06:00:44.520Z,8.03
2022-09-10T06:03:12.921Z,7.80
2022-09-10T06:05:41.033Z,10.20
2022-09-10T06:08:09.328Z,9.53
2022-09-10T06:10:37.494Z,8.30
2022-09-10T06:13:07.223Z,9.40
2022-09-10T06:15:36.414Z,10.10
2022-09-10T06:18:05.934Z,8.27
2022-09-10T06:20:34.217Z,7.67
2022-09-10T06:23:02.475Z,8.07
2022-09-10T06:25:31.260Z,9.13
2022-09-10T06:27:59.379Z,8.23
2022-09-10T06:30:28.078Z,7.40
2022-09-10T06:32:56.256Z,7.87
2022-09-10T06:35:27.204Z,7.93
2022-09-10T06:37:56.031Z,7.87
2022-09-10T06:40:26.628Z,7.23
2022-09-10T06:42:55.347Z,8.10
2022-09-10T06:45:24.218Z,7.83
2022-09-10T06:48:37.225Z,7.30
2022-09-10T06:50:50.670Z,8.30
2022-09-10T06:53:19.081Z,9.20
2022-09-10T06:55:48.553Z,8.43
2022-09-10T06:58:16.681Z,10.17
2022-09-10T07:00:45.327Z,9.33
2022-09-10T07:03:13.431Z,9.77
2022-09-10T07:05:42.995Z,10.30
2022-09-10T07:08:12.450Z,10.17
2022-09-10T07:10:40.901Z,9.57
2022-09-10T07:13:09.073Z,9.93
2022-09-10T07:15:37.493Z,10.57
2022-09-10T07:18:06.096Z,10.20
2022-09-10T07:20:34.289Z,9.50
2022-09-10T07:23:03.863Z,9.77
2022-09-10T07:25:32.012Z,9.73
2022-09-10T07:28:01.543Z,10.57
2022-09-10T07:30:30.025Z,10.30
2022-09-10T07:32:58.888Z,9.13
2022-09-10T07:35:27.295Z,9.60
2022-09-10T07:37:55.562Z,10.17
2022-09-10T07:40:25.459Z,9.73
2022-09-10T07:42:53.604Z,9.97
2022-09-10T07:45:22.138Z,10.17
2022-09-10T07:47:50.551Z,9.40
2022-09-10T07:50:19.284Z,9.43
2022-09-10T07:52:47.641Z,8.97
2022-09-10T07:55:16.013Z,9.10
2022-09-10T07:57:45.778Z,8.90
2022-09-10T08:00:16.942Z,8.63
2022-09-10T08:02:45.499Z,9.90
2022-09-10T08:05:13.797Z,8.60
2022-09-10T08:07:42.508Z,9.00
2022-09-10T08:10:11.365Z,8.17
2022-09-10T08:12:39.808Z,7.77
2022-09-10T08:15:10.284Z,8.37
2022-09-10T08:17:38.590Z,7.87
2022-09-10T08:20:08.237Z,7.47
2022-09-10T08:22:36.479Z,6.57
2022-09-10T08:25:05.184Z,7.80
2022-09-10T08:27:33.865Z,6.73
2022-09-10T08:30:01.990Z,7.67
2022-09-10T08:32:31.551Z,7.80
2022-09-10T08:34:59.864Z,6.97
2022-09-10T08:37:31.254Z,7.20
2022-09-10T08:39:59.553Z,6.43
2022-09-10T08:42:29.761Z,8.10
2022-09-10T08:44:59.878Z,7.40
2022-09-10T08:47:33.418Z,7.77
2022-09-10T08:50:02.919Z,8.93
2022-09-10T08:52:34.267Z,8.83
2022-09-10T08:55:07.871Z,9.13
2022-09-10T08:57:38.822Z,9.53
2022-09-10T09:00:09.193Z,9.43
2022-09-10T09:02:49.151Z,10.03
2022-09-10T09:05:19.105Z,10.70
2022-09-10T09:07:48.480Z,9.27
2022-09-10T09:10:28.197Z,10.27
2022-09-10T09:13:20.409Z,9.17
2022-09-10T09:15:51.818Z,9.00
2022-09-10T09:18:24.167Z,9.17
2022-09-10T09:20:54.665Z,9.87
2022-09-10T09:23:23.826Z,10.23
2022-09-10T09:25:52.495Z,9.53
2022-09-10T09:28:28.763Z,9.70
2022-09-10T09:30:56.971Z,9.60
2022-09-10T09:33:27.803Z,9.60
2022-09-10T09:35:57.819Z,8.27
2022-09-10T09:38:26.921Z,8.63
2022-09-10T09:40:56.674Z,7.53
2022-09-10T09:43:38.798Z,8.10
2022-09-10T09:46:15.623Z,7.47
2022-09-10T09:48:45.205Z,7.57
2022-09-10T09:51:15.502Z,7.53
2022-09-10T09:53:48.114Z,9.87
2022-09-10T09:56:22.778Z,7.07
2022-09-10T09:58:51.304Z,7.47
2022-09-10T10:01:21.201Z,6.97
2022-09-10T10:03:52.906Z,6.57
2022-09-10T10:06:23.222Z,6.50
2022-09-10T10:09:05.068Z,6.80
2022-09-10T10:11:45.543Z,7.10
2022-09-10T10:14:24.988Z,7.17
2022-09-10T10:16:57.328Z,7.57
2022-09-10T10:19:37.697Z,7.63
2022-09-10T10:22:25.387Z,7.27
2022-09-10T10:24:54.442Z,8.83
2022-09-10T10:27:30.221Z,9.13
2022-09-10T10:30:00.258Z,13.33
2022-09-10T10:32:35.222Z,14.23
2022-09-10T10:35:19.221Z,14.60
2022-09-10T10:37:52.328Z,14.83
2022-09-10T10:40:23.919Z,16.87
2022-09-10T10:42:54.025Z,16.03
2022-09-10T10:45:38.091Z,17.30
2022-09-10T10:48:11.942Z,16.50
2022-09-10T10:50:52.942Z,16.50
2022-09-10T10:53:36.258Z,16.33
2022-09-10T10:56:08.343Z,16.47
2022-09-10T10:58:53.463Z,15.80
2022-09-10T11:01:23.356Z,12.60
2022-09-10T11:04:01.091Z,11.50
2022-09-10T11:06:34.886Z,7.10
2022-09-10T11:09:03.981Z,8.07
2022-09-10T11:11:34.819Z,6.87
2022-09-10T11:14:07.527Z,8.30
2022-09-10T11:16:40.521Z,5.93
2022-09-10T11:19:12.219Z,6.50
2022-09-10T11:21:43.101Z,3.93
2022-09-10T11:24:16.947Z,4.53
2022-09-10T11:26:46.453Z,4.03
2022-09-10T11:29:25.382Z,5.30
2022-09-10T11:31:58.303Z,3.60
2022-09-10T11:34:29.786Z,3.20
2022-09-10T11:37:02.327Z,4.87
2022-09-10T11:39:33.730Z,4.20
2022-09-10T11:42:03.474Z,3.63
2022-09-10T11:44:37.998Z,3.23
2022-09-10T11:47:08.133Z,3.20
2022-09-10T11:49:40.724Z,3.57
2022-09-10T11:52:11.645Z,3.20
2022-09-10T11:54:40.320Z,4.33
2022-09-10T11:57:11.961Z,3.77
2022-09-10T11:59:47.972Z,3.40
2022-09-10T12:02:37.501Z,3.83
2022-09-10T12:05:07.973Z,3.50
2022-09-10T12:07:44.466Z,3.27
2022-09-10T12:10:17.731Z,3.23
2022-09-10T12:12:49.240Z,2.93
2022-09-10T12:15:19.846Z,3.07
2022-09-10T12:17:49.897Z,3.20
2022-09-10T12:20:19.753Z,2.70
2022-09-10T12:22:51.878Z,4.53
2022-09-10T12:25:34.257Z,3.50
2022-09-10T12:28:05.317Z,2.70
2022-09-10T12:31:02.791Z,3.17
2022-09-10T12:34:12.525Z,3.03
2022-09-10T12:37:18.260Z,2.47
2022-09-10T12:39:48.641Z,2.43
2022-09-10T12:42:31.125Z,2.40
2022-09-10T12:44:59.443Z,2.63
2022-09-10T12:47:53.990Z,3.03
2022-09-10T12:50:30.848Z,2.73
2022-09-10T12:53:32.390Z,2.63
2022-09-10T12:56:03.502Z,2.33
2022-09-10T12:58:43.184Z,4.47
2022-09-10T13:01:15.536Z,2.27
2022-09-10T13:03:50.125Z,2.83
2022-09-10T13:06:19.459Z,2.50
2022-09-10T13:08:49.197Z,2.60
2022-09-10T13:11:20.492Z,2.23
2022-09-10T13:13:53.428Z,2.33
2022-09-10T13:16:22.910Z,3.23
2022-09-10T13:18:56.390Z,2.90
2022-09-10T13:21:53.853Z,3.47
2022-09-10T13:24:37.688Z,3.47
2022-09-10T13:27:20.382Z,2.47
2022-09-10T13:29:49.193Z,2.53
2022-09-10T13:32:20.586Z,3.37
2022-09-10T13:35:17.597Z,2.03
2022-09-10T13:38:07.746Z,3.00
2022-09-10T13:40:46.862Z,2.20
2022-09-10T13:43:25.274Z,1.70
2022-09-10T13:45:55.355Z,3.67
2022-09-10T13:48:26.319Z,1.80
2022-09-10T13:50:58.039Z,1.63
2022-09-10T13:53:27.444Z,2.03
2022-09-10T13:55:57.915Z,2.13
2022-09-10T13:58:29.587Z,2.13
2022-09-10T14:00:58.580Z,3.93
2022-09-10T14:03:30.380Z,2.67
2022-09-10T14:05:59.052Z,1.70
2022-09-10T14:08:28.727Z,2.80
2022-09-10T14:10:59.523Z,2.15
2022-09-10T14:13:32.452Z,2.63
2022-09-10T14:16:00.974Z,3.93
2022-09-10T14:18:35.768Z,2.60
2022-09-10T14:21:03.982Z,2.73
2022-09-10T14:23:32.060Z,2.30
2022-09-10T14:26:13.904Z,4.20
2022-09-10T14:28:57.356Z,2.60
2022-09-10T14:31:33.794Z,3.28
2022-09-10T14:34:25.137Z,2.92
2022-09-10T14:36:53.234Z,1.87
2022-09-10T14:39:21.745Z,3.37
2022-09-10T14:41:50.239Z,2.40
2022-09-10T14:44:30.556Z,2.45
2022-09-10T14:46:59.401Z,3.40
2022-09-10T14:49:29.305Z,4.30
2022-09-10T14:51:58.542Z,6.90
2022-09-10T14:54:26.941Z,2.53
2022-09-10T14:56:55.378Z,2.77
2022-09-10T14:59:31.393Z,2.37
2022-09-10T15:02:00.878Z,2.43
2022-09-10T15:04:30.173Z,3.30
2022-09-10T15:06:58.788Z,2.60
2022-09-10T15:09:27.190Z,2.22
2022-09-10T15:11:56.031Z,2.60
2022-09-10T15:14:24.990Z,6.33
2022-09-10T15:16:54.433Z,2.47
2022-09-10T15:19:22.705Z,5.07
2022-09-10T15:21:50.861Z,3.80
2022-09-10T15:24:20.267Z,3.80
2022-09-10T15:26:48.799Z,8.40
2022-09-10T15:29:18.015Z,2.37
2022-09-10T15:31:46.113Z,3.80
2022-09-10T15:34:15.622Z,4.13
2022-09-10T15:36:44.228Z,4.73
2022-09-10T15:39:13.449Z,3.10
2022-09-10T15:41:42.989Z,4.53
2022-09-10T15:44:11.149Z,3.90
2022-09-10T15:46:41.864Z,2.83
2022-09-10T15:49:10.252Z,3.63
2022-09-10T15:51:39.833Z,5.27
2022-09-10T15:54:07.993Z,4.07
2022-09-10T15:56:36.754Z,4.30
2022-09-10T15:59:05.792Z,4.07
2022-09-10T16:01:33.927Z,3.93
2022-09-10T16:04:03.221Z,4.27
2022-09-10T16:06:33.291Z,5.77
2022-09-10T16:09:03.995Z,5.30
2022-09-10T16:11:33.017Z,4.03
2022-09-10T16:14:04.756Z,6.23
2022-09-10T16:16:33.130Z,7.13
2022-09-10T16:19:01.356Z,3.43
2022-09-10T16:21:30.130Z,3.67
2022-09-10T16:23:59.080Z,4.53
2022-09-10T16:26:29.857Z,5.27
2022-09-10T16:28:58.681Z,4.13
2022-09-10T16:31:28.239Z,4.17
2022-09-10T16:33:58.687Z,3.93
2022-09-10T16:36:27.077Z,5.40
2022-09-10T16:38:56.273Z,5.10
2022-09-10T16:41:24.958Z,6.17
2022-09-10T16:43:55.185Z,9.83
2022-09-10T16:46:23.592Z,8.10
2022-09-10T16:48:53.039Z,9.60
2022-09-10T16:51:23.601Z,6.70
2022-09-10T16:53:55.837Z,8.20
2022-09-10T16:56:24.295Z,6.80
2022-09-10T16:58:52.717Z,6.37
2022-09-10T17:01:22.282Z,5.30
2022-09-10T17:03:50.849Z,6.10
2022-09-10T17:06:19.881Z,5.83
2022-09-10T17:08:48.558Z,9.67
2022-09-10T17:11:17.617Z,6.30
2022-09-10T17:13:46.305Z,6.53
2022-09-10T17:16:17.988Z,5.50
2022-09-10T17:18:47.776Z,7.33
2022-09-10T17:21:15.920Z,5.80
2022-09-10T17:23:46.347Z,6.80
2022-09-10T17:26:14.422Z,8.60
2022-09-10T17:28:43.085Z,5.73
2022-09-10T17:31:11.412Z,5.30
2022-09-10T17:33:39.644Z,8.57
2022-09-10T17:36:09.721Z,8.23
2022-09-10T17:38:37.865Z,10.00
2022-09-10T17:41:06.340Z,6.83
2022-09-10T17:43:36.443Z,6.93
2022-09-10T17:46:05.132Z,9.93
2022-09-10T17:48:33.704Z,5.70
2022-09-10T17:51:01.842Z,6.73
2022-09-10T17:53:31.950Z,6.57
2022-09-10T17:56:03.850Z,7.10
2022-09-10T17:58:32.993Z,7.30
2022-09-10T18:01:01.603Z,8.23
2022-09-10T18:03:29.873Z,8.57
2022-09-10T18:05:59.087Z,7.10
2022-09-10T18:08:27.596Z,6.20
2022-09-10T18:11:05.700Z,5.77
2022-09-10T18:13:34.417Z,5.23
2022-09-10T18:16:07.155Z,6.40
2022-09-10T18:18:36.073Z,8.23
2022-09-10T18:21:14.491Z,9.03
2022-09-10T18:23:44.430Z,5.13
2022-09-10T18:26:17.553Z,5.83
2022-09-10T18:28:46.753Z,6.27
2022-09-10T18:31:14.986Z,8.20
2022-09-10T18:33:43.389Z,6.57
2022-09-10T18:36:13.672Z,4.10
2022-09-10T18:38:41.873Z,4.53
2022-09-10T18:41:19.484Z,7.40
2022-09-10T18:43:47.857Z,6.47
2022-09-10T18:46:16.107Z,4.43
2022-09-10T18:48:46.759Z,6.53
2022-09-10T18:51:15.860Z,5.20
2022-09-10T18:53:45.455Z,6.27
2022-09-10T18:56:15.117Z,4.90
2022-09-10T18:58:48.964Z,5.60
2022-09-10T19:01:17.393Z,6.33
2022-09-10T19:03:47.054Z,5.83
2022-09-10T19:06:16.142Z,7.37
2022-09-10T19:08:48.314Z,4.83
2022-09-10T19:11:19.067Z,4.93
2022-09-10T19:13:52.615Z,4.10
2022-09-10T19:16:21.239Z,6.13
2022-09-10T19:18:51.336Z,6.23
2022-09-10T19:21:20.223Z,4.27
2022-09-10T19:23:48.506Z,6.53
2022-09-10T19:26:17.110Z,3.63
2022-09-10T19:28:45.624Z,4.57
2022-09-10T19:31:17.012Z,5.53
2022-09-10T19:33:45.213Z,3.70
2022-09-10T19:36:14.601Z,6.07
2022-09-10T19:38:42.766Z,4.00
2022-09-10T19:41:12.273Z,4.27
2022-09-10T19:43:40.948Z,4.30
2022-09-10T19:46:11.188Z,6.17
2022-09-10T19:48:41.214Z,7.00
2022-09-10T19:51:10.722Z,6.47
2022-09-10T19:53:40.212Z,4.60
2022-09-10T19:56:09.175Z,4.43
2022-09-10T19:58:37.577Z,3.73
2022-09-10T20:01:09.683Z,4.23
2022-09-10T20:03:38.241Z,5.13
2022-09-10T20:06:08.746Z,4.77
2022-09-10T20:08:37.113Z,6.17
2022-09-10T20:11:06.184Z,6.63
2022-09-10T20:13:34.375Z,5.37
2022-09-10T20:16:02.877Z,8.03
2022-09-10T20:18:31.344Z,6.47
2022-09-10T20:21:12.146Z,5.37
2022-09-10T20:23:40.336Z,6.30
2022-09-10T20:26:12.656Z,7.53
2022-09-10T20:28:41.408Z,7.70
2022-09-10T20:31:10.617Z,8.03
2022-09-10T20:33:39.115Z,6.87
2022-09-10T20:36:10.618Z,6.10
2022-09-10T20:38:40.319Z,6.60
2022-09-10T20:41:08.963Z,6.70
2022-09-10T20:43:37.656Z,6.50
2022-09-10T20:46:06.603Z,6.07
2022-09-10T20:48:34.724Z,7.07
2022-09-10T20:51:03.123Z,6.87
2022-09-10T20:53:31.369Z,6.43
2022-09-10T20:56:08.090Z,6.50
2022-09-10T20:58:37.107Z,7.17
2022-09-10T21:01:09.280Z,6.63
2022-09-10T21:03:37.428Z,7.13
2022-09-10T21:06:05.803Z,8.87
2022-09-10T21:08:34.288Z,9.87
2022-09-10T21:11:05.090Z,8.37
2022-09-10T21:13:36.148Z,10.13
2022-09-10T21:16:11.349Z,9.47
2022-09-10T21:18:41.215Z,8.87
2022-09-10T21:21:10.007Z,8.93
2022-09-10T21:23:43.261Z,12.37
2022-09-10T21:26:11.985Z,9.40
2022-09-10T21:28:41.773Z,9.33
2022-09-10T21:31:10.762Z,9.20
2022-09-10T21:33:39.087Z,8.03
2022-09-10T21:36:08.534Z,8.17
2022-09-10T21:38:36.658Z,9.60
2022-09-10T21:41:05.382Z,9.73
2022-09-10T21:43:34.924Z,7.00
2022-09-10T21:46:06.920Z,7.90
2022-09-10T21:48:36.345Z,9.03
2022-09-10T21:51:05.883Z,6.27
2022-09-10T21:53:34.314Z,7.00
2022-09-10T21:56:03.403Z,8.60
2022-09-10T21:58:32.324Z,6.10
2022-09-10T22:01:00.495Z,9.87
2022-09-10T22:03:31.138Z,5.77
2022-09-10T22:06:06.647Z,6.40
2022-09-10T22:08:34.729Z,7.30
2022-09-10T22:11:06.683Z,7.03
2022-09-10T22:13:34.940Z,6.53
2022-09-10T22:16:03.553Z,10.07
2022-09-10T22:18:34.397Z,7.47
2022-09-10T22:21:02.754Z,6.93
2022-09-10T22:23:30.950Z,6.87
2022-09-10T22:26:04.310Z,6.50
2022-09-10T22:28:34.965Z,7.00
2022-09-10T22:31:08.323Z,7.73
2022-09-10T22:33:38.495Z,7.67
2022-09-10T22:36:11.128Z,6.60
2022-09-10T22:38:39.444Z,6.70
2022-09-10T22:41:10.322Z,6.20
2022-09-10T22:43:38.743Z,6.93
2022-09-10T22:46:07.904Z,7.03
2022-09-10T22:48:38.665Z,7.73
2022-09-10T22:51:07.037Z,8.23
2022-09-10T22:53:35.186Z,9.73
2022-09-10T22:56:03.831Z,7.30
2022-09-10T22:58:33.228Z,8.53
2022-09-10T23:01:04.584Z,7.13
2022-09-10T23:03:32.940Z,7.97
2022-09-10T23:06:06.379Z,7.70
2022-09-10T23:08:35.872Z,9.20
2022-09-10T23:11:12.333Z,10.43
2022-09-10T23:13:40.597Z,10.87
2022-09-10T23:16:13.264Z,7.20
2022-09-10T23:18:41.764Z,7.60
2022-09-10T23:21:12.008Z,8.10
2022-09-10T23:23:40.102Z,8.03
2022-09-10T23:26:09.025Z,9.80
2022-09-10T23:28:37.374Z,9.10
2022-09-10T23:31:13.470Z,9.20
2022-09-10T23:33:42.776Z,9.73
2022-09-10T23:36:13.562Z,9.80
2022-09-10T23:38:42.104Z,8.30
2022-09-10T23:41:11.854Z,7.50
2022-09-10T23:43:40.503Z,8.47
2022-09-10T23:46:08.962Z,9.70
2022-09-10T23:48:37.188Z,9.37
2022-09-10T23:51:05.411Z,9.30
2022-09-10T23:53:35.262Z,9.70
2022-09-10T23:56:04.004Z,9.10
2022-09-10T23:58:32.092Z,8.40
